logo
Search for airport 
image banner adimage banner adimage banner ad
image banner ad

ESHZ - Umea/Universitetssjukhuset

Located in , Sweden

ICAO - , IATA -

Data provided by Airmate  

General information

Coordinates: N63°49'2" E20°17'54"
Elevation is 233 feet MSL.
 
View others Airports in Västerbottens län

Operational data

Special qualification required
Current time UTC:
Current local time:
Weather at : ESNU - Umea ( 3 km )
METAR: ESNU 130650Z AUTO 22007KT 9999 // FEW084/// 07/03 Q1004
TAF: TAF ESNU 130530Z 1306/1315 17006KT CAVOK
View NOTAMs / SUP AIP / TFR affecting this airport [VIEW]
Communications frequencies: [VIEW]

Runways:

Airport contact information

Address: Sweden

Satellite view of ESHZ